createdAt,value
2018-04-02T00:00:01.116Z,62.34
2018-04-02T00:01:01.120Z,62.62
2018-04-02T00:02:00.852Z,62.82
2018-04-02T00:03:01.141Z,62.62
2018-04-02T00:04:00.871Z,62.82
2018-04-02T00:05:01.165Z,62.82
2018-04-02T00:06:00.899Z,62.43
2018-04-02T00:07:01.189Z,62.82
2018-04-02T00:08:01.204Z,62.91
2018-04-02T00:09:00.927Z,62.72
2018-04-02T00:10:01.219Z,62.43
2018-04-02T00:11:00.947Z,62.82
2018-04-02T00:12:01.260Z,62.82
2018-04-02T00:13:01.255Z,62.91
2018-04-02T00:14:01.328Z,62.72
2018-04-02T00:15:01.283Z,63.01
2018-04-02T00:16:01.004Z,63.48
2018-04-02T00:17:01.332Z,63.48
2018-04-02T00:18:01.305Z,63.48
2018-04-02T00:19:01.036Z,63.48
2018-04-02T00:20:01.340Z,63.48
2018-04-02T00:21:01.340Z,63.48
2018-04-02T00:22:01.076Z,63.57
2018-04-02T00:23:01.364Z,63.1
2018-04-02T00:24:01.401Z,63.2
2018-04-02T00:25:01.386Z,63.39
2018-04-02T00:26:01.115Z,63.1
2018-04-02T00:27:01.124Z,63.2
2018-04-02T00:28:01.413Z,63.29
2018-04-02T00:29:01.427Z,63.57
2018-04-02T00:30:01.438Z,63.48
2018-04-02T00:31:01.166Z,63.48
2018-04-02T00:32:01.183Z,63.2
2018-04-02T00:33:01.475Z,63.51
2018-04-02T00:34:01.199Z,63.39
2018-04-02T00:35:01.494Z,63.48
2018-04-02T00:36:01.517Z,63.57
2018-04-02T00:37:01.235Z,63.51
2018-04-02T00:38:01.544Z,63.51
2018-04-02T00:39:01.537Z,63.6
2018-04-02T00:40:01.549Z,63.51
2018-04-02T00:41:01.561Z,63.42
2018-04-02T00:42:01.572Z,63.13
2018-04-02T00:43:01.588Z,63.51
2018-04-02T00:44:01.320Z,63.42
2018-04-02T00:45:01.322Z,63.04
2018-04-02T00:46:01.616Z,62.94
2018-04-02T00:47:01.634Z,62.94
2018-04-02T00:48:01.363Z,63.42
2018-04-02T00:49:01.654Z,63.6
2018-04-02T00:50:01.671Z,63.51
2018-04-02T00:51:01.393Z,63.42
2018-04-02T00:52:01.684Z,63.42
2018-04-02T00:53:01.694Z,63.51
2018-04-02T00:54:01.425Z,63.04
2018-04-02T00:55:01.431Z,63.42
2018-04-02T00:56:01.735Z,63.32
2018-04-02T00:57:01.457Z,63.23
2018-04-02T00:58:01.471Z,63.23
2018-04-02T00:59:01.763Z,63.42
2018-04-02T01:00:01.774Z,63.23
2018-04-02T01:01:01.500Z,63.23
2018-04-02T01:02:01.795Z,63.42
2018-04-02T01:03:01.815Z,63.23
2018-04-02T01:04:01.533Z,63.42
2018-04-02T01:05:01.825Z,63.23
2018-04-02T01:06:01.839Z,63.23
2018-04-02T01:07:01.848Z,63.32
2018-04-02T01:08:01.576Z,63.32
2018-04-02T01:09:01.870Z,63.42
2018-04-02T01:10:01.883Z,63.32
2018-04-02T01:11:01.891Z,63.42
2018-04-02T01:12:01.907Z,63.23
2018-04-02T01:13:01.631Z,63.42
2018-04-02T01:14:01.646Z,63.42
2018-04-02T01:15:02.648Z,63.42
2018-04-02T01:16:02.233Z,63.32
2018-04-02T01:17:02.115Z,63.51
2018-04-02T01:18:01.805Z,63.79
2018-04-02T01:19:02.475Z,63.6
2018-04-02T01:20:01.842Z,63.6
2018-04-02T01:21:02.202Z,63.7
2018-04-02T01:22:02.190Z,63.23
2018-04-02T01:23:02.205Z,63.6
2018-04-02T01:24:01.923Z,63.23
2018-04-02T01:25:02.214Z,63.79
2018-04-02T01:26:02.235Z,63.6
2018-04-02T01:27:02.233Z,63.51
2018-04-02T01:28:01.934Z,63.51
2018-04-02T01:29:02.311Z,63.2
2018-04-02T01:30:02.432Z,63.6
2018-04-02T01:31:01.994Z,63.79
2018-04-02T01:32:02.371Z,63.76
2018-04-02T01:33:01.955Z,63.89
2018-04-02T01:34:02.046Z,63.89
2018-04-02T01:35:02.430Z,63.57
2018-04-02T01:36:02.372Z,63.48
2018-04-02T01:37:02.447Z,63.6
2018-04-02T01:38:02.524Z,63.67
2018-04-02T01:39:02.225Z,64.17
2018-04-02T01:40:02.490Z,64.27
2018-04-02T01:41:02.563Z,64.14
2018-04-02T01:42:02.395Z,64.24
2018-04-02T01:43:02.246Z,64.27
2018-04-02T01:44:01.973Z,64.37
2018-04-02T01:45:01.985Z,64.27
2018-04-02T01:46:01.996Z,64.37
2018-04-02T01:47:02.007Z,63.86
2018-04-02T01:48:02.304Z,63.86
2018-04-02T01:49:02.313Z,64.33
2018-04-02T01:50:02.057Z,63.95
2018-04-02T01:51:02.349Z,63.95
2018-04-02T01:52:02.345Z,64.05
2018-04-02T01:53:02.073Z,63.86
2018-04-02T01:54:02.366Z,64.14
2018-04-02T01:55:02.385Z,63.76
2018-04-02T01:56:02.414Z,64.14
2018-04-02T01:57:02.423Z,63.76
2018-04-02T01:58:02.410Z,63.86
2018-04-02T01:59:02.140Z,63.95
2018-04-02T02:00:02.439Z,63.95
2018-04-02T02:01:02.164Z,63.76
2018-04-02T02:02:02.457Z,63.67
2018-04-02T02:03:02.474Z,64.14
2018-04-02T02:04:02.478Z,63.95
2018-04-02T02:05:02.210Z,64.05
2018-04-02T02:06:02.501Z,64.14
2018-04-02T02:07:02.510Z,63.67
2018-04-02T02:08:02.524Z,64.52
2018-04-02T02:09:02.249Z,64.14
2018-04-02T02:10:02.542Z,64.43
2018-04-02T02:11:02.555Z,64.33
2018-04-02T02:12:02.566Z,64.33
2018-04-02T02:13:02.578Z,64.52
2018-04-02T02:14:02.591Z,64.33
2018-04-02T02:15:02.502Z,64.43
2018-04-02T02:16:02.608Z,64.52
2018-04-02T02:17:02.622Z,64.05
2018-04-02T02:18:02.639Z,64.43
2018-04-02T02:19:02.646Z,64.43
2018-04-02T02:20:02.660Z,64.24
2018-04-02T02:21:02.669Z,64.43
2018-04-02T02:22:02.395Z,64.43
2018-04-02T02:23:02.406Z,64.24
2018-04-02T02:24:02.697Z,64.05
2018-04-02T02:25:02.428Z,64.33
2018-04-02T02:26:02.730Z,64.14
2018-04-02T02:27:02.730Z,64.33
2018-04-02T02:28:02.760Z,64.33
2018-04-02T02:29:02.755Z,64.43
2018-04-02T02:30:02.482Z,64.71
2018-04-02T02:31:02.775Z,64.71
2018-04-02T02:32:02.787Z,64.05
2018-04-02T02:33:02.799Z,64.71
2018-04-02T02:34:02.552Z,64.43
2018-04-02T02:35:03.130Z,64.71
2018-04-02T02:36:02.850Z,64.62
2018-04-02T02:37:02.846Z,64.62
2018-04-02T02:38:02.568Z,64.62
2018-04-02T02:39:03.080Z,64.9
2018-04-02T02:40:02.591Z,64.9
2018-04-02T02:41:02.892Z,64.81
2018-04-02T02:42:02.904Z,64.62
2018-04-02T02:43:02.907Z,64.62
2018-04-02T02:44:02.938Z,64.71
2018-04-02T02:45:02.938Z,64.81
2018-04-02T02:46:02.955Z,65.28
2018-04-02T02:47:02.676Z,65.19
2018-04-02T02:48:02.699Z,65.19
2018-04-02T02:49:02.974Z,65.19
2018-04-02T02:50:02.707Z,65.09
2018-04-02T02:51:02.995Z,65.09
2018-04-02T02:52:03.019Z,65.28
2018-04-02T02:53:03.022Z,65.19
2018-04-02T02:54:03.028Z,65.19
2018-04-02T02:55:03.038Z,65
2018-04-02T02:56:02.782Z,65
2018-04-02T02:57:03.069Z,65.28
2018-04-02T02:58:03.076Z,65.28
2018-04-02T02:59:02.801Z,65.09
2018-04-02T03:00:03.112Z,64.71
2018-04-02T03:01:03.103Z,64.81
2018-04-02T03:02:03.157Z,65
2018-04-02T03:03:03.127Z,64.9
2018-04-02T03:04:02.872Z,64.9
2018-04-02T03:05:03.154Z,64.43
2018-04-02T03:06:03.180Z,64.81
2018-04-02T03:07:02.889Z,64.9
2018-04-02T03:08:02.901Z,64.81
2018-04-02T03:09:03.197Z,64.81
2018-04-02T03:10:02.935Z,64.81
2018-04-02T03:11:02.928Z,64.9
2018-04-02T03:12:02.959Z,64.9
2018-04-02T03:13:02.951Z,65.28
2018-04-02T03:14:02.976Z,65.28
2018-04-02T03:15:03.262Z,65.37
2018-04-02T03:16:03.263Z,65.28
2018-04-02T03:17:02.993Z,65.19
2018-04-02T03:18:03.021Z,65.37
2018-04-02T03:19:03.017Z,65
2018-04-02T03:20:03.328Z,65.09
2018-04-02T03:21:03.035Z,65.09
2018-04-02T03:22:03.341Z,65.37
2018-04-02T03:23:03.348Z,65.56
2018-04-02T03:24:03.070Z,65.37
2018-04-02T03:25:03.082Z,65.37
2018-04-02T03:26:03.381Z,65.37
2018-04-02T03:27:03.387Z,65.56
2018-04-02T03:28:03.139Z,65.37
2018-04-02T03:29:03.404Z,65.37
2018-04-02T03:30:03.473Z,65.37
2018-04-02T03:31:03.433Z,65.37
2018-04-02T03:32:03.447Z,65.37
2018-04-02T03:33:03.166Z,65.37
2018-04-02T03:34:03.202Z,65.37
2018-04-02T03:35:03.473Z,65.37
2018-04-02T03:36:03.504Z,65.37
2018-04-02T03:37:03.216Z,65.28
2018-04-02T03:38:03.220Z,64.9
2018-04-02T03:39:03.232Z,65.19
2018-04-02T03:40:03.248Z,64.9
2018-04-02T03:41:03.538Z,65
2018-04-02T03:42:03.563Z,65.19
2018-04-02T03:43:03.561Z,65.19
2018-04-02T03:44:03.571Z,65
2018-04-02T03:45:03.579Z,65.19
2018-04-02T03:46:03.306Z,65.28
2018-04-02T03:47:03.319Z,65.19
2018-04-02T03:48:03.621Z,65.19
2018-04-02T03:49:03.629Z,65.28
2018-04-02T03:50:03.360Z,65.28
2018-04-02T03:51:03.647Z,65.28
2018-04-02T03:52:03.666Z,65.19
2018-04-02T03:53:03.664Z,65.28
2018-04-02T03:54:03.394Z,65.19
2018-04-02T03:55:03.406Z,65.28
2018-04-02T03:56:03.696Z,65.19
2018-04-02T03:57:03.428Z,65.56
2018-04-02T03:58:03.452Z,65.75
2018-04-02T03:59:03.446Z,65.47
2018-04-02T04:00:03.742Z,65.66
2018-04-02T04:01:03.468Z,65.56
2018-04-02T04:02:03.768Z,65.66
2018-04-02T04:03:03.490Z,65.56
2018-04-02T04:04:03.514Z,65.66
2018-04-02T04:05:03.796Z,65.47
2018-04-02T04:06:03.812Z,65.56
2018-04-02T04:07:03.822Z,65.66
2018-04-02T04:08:03.832Z,65.47
2018-04-02T04:09:03.838Z,65.56
2018-04-02T04:10:03.566Z,65.56
2018-04-02T04:11:03.574Z,65.66
2018-04-02T04:12:03.875Z,65.56
2018-04-02T04:13:03.597Z,65.56
2018-04-02T04:14:03.890Z,65.75
2018-04-02T04:15:04.012Z,65.56
2018-04-02T04:16:03.916Z,65.56
2018-04-02T04:17:03.921Z,65.66
2018-04-02T04:18:03.651Z,65.56
2018-04-02T04:19:03.664Z,65.56
2018-04-02T04:20:03.687Z,65.47
2018-04-02T04:21:03.963Z,65.66
2018-04-02T04:22:03.979Z,65.75
2018-04-02T04:23:03.994Z,65.66
2018-04-02T04:24:03.712Z,65.37
2018-04-02T04:25:04.013Z,65.37
2018-04-02T04:26:04.028Z,65.37
2018-04-02T04:27:03.754Z,65.37
2018-04-02T04:28:04.042Z,65.37
2018-04-02T04:29:04.054Z,65.66
2018-04-02T04:30:03.779Z,65.37
2018-04-02T04:31:03.788Z,65.37
2018-04-02T04:32:03.800Z,65.37
2018-04-02T04:33:04.091Z,65.37
2018-04-02T04:34:04.105Z,65.47
2018-04-02T04:35:03.831Z,65.47
2018-04-02T04:36:04.136Z,65.37
2018-04-02T04:37:03.853Z,65.47
2018-04-02T04:38:04.154Z,65.66
2018-04-02T04:39:03.875Z,65.47
2018-04-02T04:40:03.885Z,65.47
2018-04-02T04:41:04.184Z,65.47
2018-04-02T04:42:03.909Z,65.47
2018-04-02T04:43:04.204Z,65.37
2018-04-02T04:44:04.217Z,65.47
2018-04-02T04:45:03.938Z,65.47
2018-04-02T04:46:03.957Z,65.47
2018-04-02T04:47:04.242Z,65.47
2018-04-02T04:48:03.972Z,65.37
2018-04-02T04:49:03.981Z,65.28
2018-04-02T04:50:03.992Z,65.19
2018-04-02T04:51:04.286Z,65.37
2018-04-02T04:52:04.297Z,65.37
2018-04-02T04:53:04.024Z,65.56
2018-04-02T04:54:04.034Z,65.37
2018-04-02T04:55:04.331Z,65.47
2018-04-02T04:56:04.342Z,65.37
2018-04-02T04:57:04.068Z,65.37
2018-04-02T04:58:04.360Z,65.66
2018-04-02T04:59:04.371Z,65.66
2018-04-02T05:00:04.385Z,65.56
2018-04-02T05:01:04.108Z,65.75
2018-04-02T05:02:04.118Z,65.47
2018-04-02T05:03:04.129Z,65.85
2018-04-02T05:04:04.143Z,65.75
2018-04-02T05:05:04.436Z,65.75
2018-04-02T05:06:04.445Z,65.75
2018-04-02T05:07:04.172Z,65.75
2018-04-02T05:08:04.468Z,65.47
2018-04-02T05:09:04.483Z,65.56
2018-04-02T05:10:04.255Z,65.47
2018-04-02T05:11:04.497Z,65.85
2018-04-02T05:12:04.507Z,65.56
2018-04-02T05:13:04.235Z,65.47
2018-04-02T05:14:04.540Z,65.37
2018-04-02T05:15:05.945Z,65.56
2018-04-02T05:16:04.268Z,65.37
2018-04-02T05:17:04.558Z,65.75
2018-04-02T05:18:04.576Z,65.85
2018-04-02T05:19:04.299Z,65.47
2018-04-02T05:20:04.644Z,65.37
2018-04-02T05:21:04.323Z,65.37
2018-04-02T05:22:04.617Z,65.56
2018-04-02T05:23:04.633Z,65.75
2018-04-02T05:24:04.353Z,65.47
2018-04-02T05:25:04.363Z,65.37
2018-04-02T05:26:04.379Z,65.75
2018-04-02T05:27:04.387Z,65.37
2018-04-02T05:28:04.398Z,65.75
2018-04-02T05:29:04.408Z,65.75
2018-04-02T05:30:04.702Z,65.56
2018-04-02T05:31:04.430Z,65.66
2018-04-02T05:32:04.441Z,65.56
2018-04-02T05:33:04.737Z,65.66
2018-04-02T05:34:04.464Z,65.56
2018-04-02T05:35:04.471Z,65.85
2018-04-02T05:36:04.779Z,65.56
2018-04-02T05:37:04.508Z,65.56
2018-04-02T05:38:04.501Z,65.75
2018-04-02T05:39:04.516Z,65.75
2018-04-02T05:40:04.525Z,65.75
2018-04-02T05:41:04.848Z,65.56
2018-04-02T05:42:04.547Z,65.47
2018-04-02T05:43:04.556Z,65.75
2018-04-02T05:44:04.571Z,65.85
2018-04-02T05:45:04.579Z,65.85
2018-04-02T05:46:04.588Z,65.75
2018-04-02T05:47:04.600Z,65.56
2018-04-02T05:48:04.894Z,65.75
2018-04-02T05:49:04.622Z,65.75
2018-04-02T05:50:04.632Z,65.85
2018-04-02T05:51:04.696Z,65.75
2018-04-02T05:52:04.653Z,65.95
2018-04-02T05:53:04.663Z,65.37
2018-04-02T05:54:04.956Z,65.56
2018-04-02T05:55:04.685Z,65.37
2018-04-02T05:56:04.694Z,65.37
2018-04-02T05:57:04.998Z,65.37
2018-04-02T05:58:05.007Z,65.28
2018-04-02T05:59:05.015Z,65.37
2018-04-02T06:00:04.739Z,65.19
2018-04-02T06:01:04.751Z,65.47
2018-04-02T06:02:05.046Z,65.47
2018-04-02T06:03:05.053Z,65.37
2018-04-02T06:04:05.074Z,65.47
2018-04-02T06:05:04.793Z,65.56
2018-04-02T06:06:04.815Z,65.56
2018-04-02T06:07:04.815Z,65.66
2018-04-02T06:08:04.827Z,65.56
2018-04-02T06:09:05.125Z,65.47
2018-04-02T06:10:05.128Z,65.47
2018-04-02T06:11:04.858Z,65.28
2018-04-02T06:12:04.871Z,65.56
2018-04-02T06:13:04.881Z,65.47
2018-04-02T06:14:05.173Z,65.47
2018-04-02T06:15:05.520Z,65.47
2018-04-02T06:16:04.940Z,65.66
2018-04-02T06:17:05.215Z,65.75
2018-04-02T06:18:05.216Z,65.66
2018-04-02T06:19:04.945Z,65.56
2018-04-02T06:20:04.956Z,65.66
2018-04-02T06:21:05.249Z,65.37
2018-04-02T06:22:05.264Z,65.37
2018-04-02T06:23:05.271Z,65.66
2018-04-02T06:24:05.310Z,65.56
2018-04-02T06:25:05.293Z,65.47
2018-04-02T06:26:05.303Z,65.56
2018-04-02T06:27:05.033Z,65.47
2018-04-02T06:28:05.325Z,65.37
2018-04-02T06:29:05.335Z,65.37
2018-04-02T06:30:05.355Z,65.56
2018-04-02T06:31:05.362Z,65.56
2018-04-02T06:32:05.372Z,65.47
2018-04-02T06:33:05.383Z,65.56
2018-04-02T06:34:05.394Z,65.75
2018-04-02T06:35:05.120Z,65.56
2018-04-02T06:36:05.131Z,65.56
2018-04-02T06:37:05.181Z,65.56
2018-04-02T06:38:05.437Z,65.56
2018-04-02T06:39:05.449Z,65.66
2018-04-02T06:40:05.180Z,65.28
2018-04-02T06:41:05.469Z,65.66
2018-04-02T06:42:05.481Z,65.66
2018-04-02T06:43:05.498Z,65.75
2018-04-02T06:44:05.502Z,65.56
2018-04-02T06:45:05.550Z,65.19
2018-04-02T06:46:05.527Z,65.75
2018-04-02T06:47:05.253Z,65.69
2018-04-02T06:48:05.263Z,65.69
2018-04-02T06:49:05.279Z,65.56
2018-04-02T06:50:05.286Z,65.69
2018-04-02T06:51:05.587Z,65.69
2018-04-02T06:52:05.593Z,65.6
2018-04-02T06:53:05.326Z,65.69
2018-04-02T06:54:05.611Z,65.6
2018-04-02T06:55:05.341Z,65.69
2018-04-02T06:56:05.634Z,65.6
2018-04-02T06:57:05.643Z,65.6
2018-04-02T06:58:05.725Z,65.03
2018-04-02T06:59:05.396Z,65.6
2018-04-02T07:00:05.676Z,65.6
2018-04-02T07:01:05.696Z,65.5
2018-04-02T07:02:05.419Z,65.69
2018-04-02T07:03:05.711Z,65.5
2018-04-02T07:04:05.442Z,65.31
2018-04-02T07:05:05.450Z,65.6
2018-04-02T07:06:05.751Z,65.41
2018-04-02T07:07:05.474Z,65.69
2018-04-02T07:08:05.488Z,65.6
2018-04-02T07:09:05.496Z,65.79
2018-04-02T07:10:05.507Z,65.41
2018-04-02T07:11:05.516Z,65.41
2018-04-02T07:12:05.813Z,65.41
2018-04-02T07:13:05.824Z,65.31
2018-04-02T07:14:05.834Z,65.69
2018-04-02T07:15:06.049Z,65.41
2018-04-02T07:16:05.572Z,65.31
2018-04-02T07:17:05.866Z,65.41
2018-04-02T07:18:05.881Z,65.6
2018-04-02T07:19:05.895Z,65.31
2018-04-02T07:20:05.616Z,65.6
2018-04-02T07:21:05.680Z,65.6
2018-04-02T07:22:05.643Z,65.6
2018-04-02T07:23:06.017Z,65.69
2018-04-02T07:24:05.663Z,65.5
2018-04-02T07:25:05.674Z,65.69
2018-04-02T07:26:05.969Z,65.6
2018-04-02T07:27:05.697Z,65.5
2018-04-02T07:28:05.991Z,65.79
2018-04-02T07:29:05.718Z,65.69
2018-04-02T07:30:06.014Z,65.6
2018-04-02T07:31:06.075Z,65.5
2018-04-02T07:32:06.036Z,65.6
2018-04-02T07:33:06.049Z,65.41
2018-04-02T07:34:05.774Z,65.6
2018-04-02T07:35:06.069Z,65.5
2018-04-02T07:36:06.138Z,65.69
2018-04-02T07:37:05.808Z,65.6
2018-04-02T07:38:06.104Z,65.6
2018-04-02T07:39:06.114Z,65.69
2018-04-02T07:40:06.127Z,65.5
2018-04-02T07:41:06.137Z,65.69
2018-04-02T07:42:06.146Z,65.5
2018-04-02T07:43:05.874Z,65.5
2018-04-02T07:44:06.172Z,65.5
2018-04-02T07:45:05.902Z,65.6
2018-04-02T07:46:06.193Z,65.5
2018-04-02T07:47:06.216Z,65.5
2018-04-02T07:48:06.215Z,65.6
2018-04-02T07:49:05.942Z,65.41
2018-04-02T07:50:05.956Z,65.79
2018-04-02T07:51:05.968Z,65.69
2018-04-02T07:52:06.268Z,65.25
2018-04-02T07:53:06.270Z,65.69
2018-04-02T07:54:06.284Z,65.79
2018-04-02T07:55:06.013Z,65.6
2018-04-02T07:56:06.313Z,65.22
2018-04-02T07:57:06.077Z,65.06
2018-04-02T07:58:06.329Z,65.16
2018-04-02T07:59:06.056Z,65.06
2018-04-02T08:00:06.068Z,64.97
2018-04-02T08:01:06.377Z,65.25
2018-04-02T08:02:06.092Z,65.44
2018-04-02T08:03:06.386Z,65.25
2018-04-02T08:04:06.114Z,65.44
2018-04-02T08:05:06.127Z,65.44
2018-04-02T08:06:06.427Z,65.44
2018-04-02T08:07:06.149Z,65.06
2018-04-02T08:08:06.443Z,64.97
2018-04-02T08:09:06.457Z,64.87
2018-04-02T08:10:06.478Z,65.06
2018-04-02T08:11:06.193Z,64.87
2018-04-02T08:12:06.233Z,64.78
2018-04-02T08:13:06.221Z,65.16
2018-04-02T08:14:06.231Z,65.06
2018-04-02T08:15:06.591Z,64.87
2018-04-02T08:16:06.538Z,65.06
2018-04-02T08:17:06.266Z,64.4
2018-04-02T08:18:06.347Z,64.78
2018-04-02T08:19:06.575Z,64.3
2018-04-02T08:20:06.585Z,64.62
2018-04-02T08:21:06.593Z,64.72
2018-04-02T08:22:06.322Z,64.43
2018-04-02T08:23:06.345Z,64.05
2018-04-02T08:24:06.347Z,64.05
2018-04-02T08:25:06.642Z,64.14
2018-04-02T08:26:06.653Z,64.34
2018-04-02T08:27:06.381Z,64.34
2018-04-02T08:28:06.681Z,64.34
2018-04-02T08:29:06.404Z,63.57
2018-04-02T08:30:06.699Z,63.95
2018-04-02T08:31:06.437Z,63.95
2018-04-02T08:32:06.441Z,63.95
2018-04-02T08:33:06.733Z,63.95
2018-04-02T08:34:06.754Z,63.95
2018-04-02T08:35:06.477Z,63.95
2018-04-02T08:36:06.880Z,63.67
2018-04-02T08:37:06.499Z,63.39
2018-04-02T08:38:06.511Z,63.39
2018-04-02T08:39:06.809Z,63.39
2018-04-02T08:40:06.827Z,63.29
2018-04-02T08:41:06.850Z,63.29
2018-04-02T08:42:06.849Z,63.57
2018-04-02T08:43:06.858Z,63.67
2018-04-02T08:44:06.585Z,63.57
2018-04-02T08:45:06.887Z,63.67
2018-04-02T08:46:06.616Z,63.57
2018-04-02T08:47:06.623Z,63.29
2018-04-02T08:48:06.922Z,63.39
2018-04-02T08:49:06.646Z,63.39
2018-04-02T08:50:06.946Z,63.67
2018-04-02T08:51:06.955Z,63.2
2018-04-02T08:52:06.688Z,63.13
2018-04-02T08:53:06.696Z,63.13
2018-04-02T08:54:06.990Z,63.32
2018-04-02T08:55:07.002Z,62.56
2018-04-02T08:56:06.730Z,63.04
2018-04-02T08:57:07.045Z,62.65
2018-04-02T08:58:07.042Z,62.56
2018-04-02T08:59:07.049Z,62.65
2018-04-02T09:00:06.780Z,62.46
2018-04-02T09:01:07.075Z,62.46
2018-04-02T09:02:07.088Z,62.46
2018-04-02T09:03:06.820Z,62.46
2018-04-02T09:04:07.113Z,62.37
2018-04-02T09:05:07.126Z,62.37
2018-04-02T09:06:07.221Z,62.46
2018-04-02T09:07:06.892Z,62.37
2018-04-02T09:08:06.881Z,62.02
2018-04-02T09:09:07.175Z,61.93
2018-04-02T09:10:07.187Z,61.83
2018-04-02T09:11:06.917Z,61.55
2018-04-02T09:12:06.967Z,61.45
2018-04-02T09:13:07.253Z,61.74
2018-04-02T09:14:07.242Z,61.45
2018-04-02T09:15:07.518Z,61.16
2018-04-02T09:16:07.264Z,61.35
2018-04-02T09:17:07.276Z,61.45
2018-04-02T09:18:07.288Z,61.26
2018-04-02T09:19:07.302Z,61.45
2018-04-02T09:20:07.315Z,61.45
2018-04-02T09:21:07.328Z,61.83
2018-04-02T09:22:07.062Z,61.16
2018-04-02T09:23:07.352Z,61.16
2018-04-02T09:24:07.079Z,60.97
2018-04-02T09:25:07.422Z,60.97
2018-04-02T09:26:07.394Z,61.07
2018-04-02T09:27:07.402Z,61.07
2018-04-02T09:28:07.424Z,61.19
2018-04-02T09:29:07.427Z,61.1
2018-04-02T09:30:07.448Z,60.72
2018-04-02T09:31:07.460Z,60.82
2018-04-02T09:32:07.468Z,60.72
2018-04-02T09:33:07.480Z,60.44
2018-04-02T09:34:07.493Z,60.63
2018-04-02T09:35:07.503Z,60.53
2018-04-02T09:36:07.517Z,60.91
2018-04-02T09:37:07.530Z,60.82
2018-04-02T09:38:07.281Z,60.82
2018-04-02T09:39:07.276Z,60.91
2018-04-02T09:40:07.288Z,60.63
2018-04-02T09:41:07.590Z,60.53
2018-04-02T09:42:07.596Z,60.63
2018-04-02T09:43:07.328Z,60.18
2018-04-02T09:44:07.623Z,59.89
2018-04-02T09:45:07.364Z,59.8
2018-04-02T09:46:07.364Z,59.8
2018-04-02T09:47:07.675Z,59.8
2018-04-02T09:48:07.391Z,59.7
2018-04-02T09:49:07.404Z,59.8
2018-04-02T09:50:07.700Z,59.8
2018-04-02T09:51:07.716Z,59.61
2018-04-02T09:52:07.446Z,59.13
2018-04-02T09:53:07.457Z,58.94
2018-04-02T09:54:07.832Z,58.75
2018-04-02T09:55:07.484Z,58.87
2018-04-02T09:56:07.786Z,58.59
2018-04-02T09:57:07.862Z,58.59
2018-04-02T09:58:07.808Z,58.02
2018-04-02T09:59:07.821Z,58.02
2018-04-02T10:00:07.833Z,57.54
2018-04-02T10:01:07.847Z,56.97
2018-04-02T10:02:07.868Z,57.26
2018-04-02T10:03:07.878Z,56.97
2018-04-02T10:04:07.900Z,56.87
2018-04-02T10:05:08.217Z,56.68
2018-04-02T10:06:07.915Z,56.68
2018-04-02T10:07:07.942Z,56.21
2018-04-02T10:08:07.944Z,55.85
2018-04-02T10:09:07.676Z,55.76
2018-04-02T10:10:07.790Z,55.95
2018-04-02T10:11:07.983Z,55.38
2018-04-02T10:12:08.002Z,55.76
2018-04-02T10:13:07.728Z,55.38
2018-04-02T10:14:07.744Z,55.28
2018-04-02T10:15:07.757Z,55.09
2018-04-02T10:16:08.052Z,55.38
2018-04-02T10:17:08.072Z,54.71
2018-04-02T10:18:08.082Z,54.93
2018-04-02T10:19:08.093Z,55.02
2018-04-02T10:20:07.828Z,54.36
2018-04-02T10:21:07.838Z,54.07
2018-04-02T10:22:07.856Z,53.88
2018-04-02T10:23:08.156Z,53.88
2018-04-02T10:24:08.350Z,53.69
2018-04-02T10:25:08.190Z,53.69
2018-04-02T10:26:07.910Z,53.31
2018-04-02T10:27:07.925Z,53.78
2018-04-02T10:28:08.279Z,53.41
2018-04-02T10:29:08.239Z,53.21
2018-04-02T10:30:07.968Z,53.02
2018-04-02T10:31:08.424Z,52.92
2018-04-02T10:32:08.333Z,52.55
2018-04-02T10:33:08.299Z,53.02
2018-04-02T10:34:08.314Z,53.02
2018-04-02T10:35:08.041Z,52.48
2018-04-02T10:36:08.340Z,52.57
2018-04-02T10:37:08.068Z,52.38
2018-04-02T10:38:08.084Z,52
2018-04-02T10:39:08.107Z,52
2018-04-02T10:40:08.114Z,51.9
2018-04-02T10:41:08.128Z,51.81
2018-04-02T10:42:08.141Z,51.9
2018-04-02T10:43:08.443Z,51.71
2018-04-02T10:44:08.457Z,51.71
2018-04-02T10:45:08.468Z,51.52
2018-04-02T10:46:08.202Z,51.33
2018-04-02T10:47:08.501Z,51.43
2018-04-02T10:48:08.230Z,51.62
2018-04-02T10:49:08.538Z,51.62
2018-04-02T10:50:08.549Z,51.52
2018-04-02T10:51:08.563Z,51.33
2018-04-02T10:52:08.582Z,51.23
2018-04-02T10:53:08.636Z,51.23
2018-04-02T10:54:08.607Z,51.33
2018-04-02T10:55:08.617Z,51.43
2018-04-02T10:56:08.634Z,51.43
2018-04-02T10:57:08.651Z,51.62
2018-04-02T10:58:08.381Z,51.52
2018-04-02T10:59:08.397Z,51.52
2018-04-02T11:00:08.409Z,51.52
2018-04-02T11:01:08.424Z,51.52
2018-04-02T11:02:08.722Z,51.62
2018-04-02T11:03:08.454Z,51.23
2018-04-02T11:04:08.754Z,50.85
2018-04-02T11:05:08.486Z,50.38
2018-04-02T11:06:08.546Z,50.38
2018-04-02T11:07:08.800Z,50.47
2018-04-02T11:08:08.546Z,49.99
2018-04-02T11:09:08.553Z,50.18
2018-04-02T11:10:08.563Z,49.99
2018-04-02T11:11:08.580Z,49.8
2018-04-02T11:12:08.595Z,49.52
2018-04-02T11:13:09.009Z,50.28
2018-04-02T11:14:08.908Z,50.28
2018-04-02T11:15:08.640Z,50.28
2018-04-02T11:16:08.938Z,50.57
2018-04-02T11:17:08.668Z,50.12
2018-04-02T11:18:08.969Z,49.42
2018-04-02T11:19:08.984Z,50.18
2018-04-02T11:20:08.715Z,49.9
2018-04-02T11:21:08.732Z,49.13
2018-04-02T11:22:09.285Z,49.13
2018-04-02T11:23:09.099Z,49.23
2018-04-02T11:24:09.076Z,48.66
2018-04-02T11:25:09.074Z,48.75
2018-04-02T11:26:09.294Z,48.75
2018-04-02T11:27:08.824Z,48.57
2018-04-02T11:28:09.182Z,48.66
2018-04-02T11:29:08.860Z,48.57
2018-04-02T11:30:08.869Z,48.66
2018-04-02T11:31:09.170Z,48.85
2018-04-02T11:32:08.917Z,49.13
2018-04-02T11:33:09.207Z,49.04
2018-04-02T11:34:09.216Z,49.13
2018-04-02T11:35:09.268Z,49.13
2018-04-02T11:36:09.245Z,49.13
2018-04-02T11:37:08.981Z,49.13
2018-04-02T11:38:08.993Z,48.94
2018-04-02T11:39:09.297Z,49.62
2018-04-02T11:40:09.032Z,49.13
2018-04-02T11:41:09.042Z,48.94
2018-04-02T11:42:09.342Z,49.71
2018-04-02T11:43:09.356Z,48.94
2018-04-02T11:44:09.372Z,49.62
2018-04-02T11:45:09.389Z,49.26
2018-04-02T11:46:09.403Z,49.64
2018-04-02T11:47:09.422Z,49.83
2018-04-02T11:48:09.523Z,48.97
2018-04-02T11:49:09.167Z,49.35
2018-04-02T11:50:09.467Z,48.88
2018-04-02T11:51:09.483Z,48.49
2018-04-02T11:52:09.214Z,48.02
2018-04-02T11:53:09.514Z,47.82
2018-04-02T11:54:09.528Z,47.63
2018-04-02T11:55:09.547Z,47.54
2018-04-02T11:56:09.560Z,47.63
2018-04-02T11:57:09.628Z,47.63
2018-04-02T11:58:09.642Z,46.97
2018-04-02T11:59:09.608Z,47.44
2018-04-02T12:00:09.345Z,46.97
2018-04-02T12:01:09.375Z,46.97
2018-04-02T12:02:09.680Z,46.97
2018-04-02T12:03:09.688Z,46.77
2018-04-02T12:04:09.698Z,46.87
2018-04-02T12:05:09.420Z,46.58
2018-04-02T12:06:09.719Z,46.51
2018-04-02T12:07:09.744Z,46.2
2018-04-02T12:08:09.468Z,45.72
2018-04-02T12:09:09.485Z,45.53
2018-04-02T12:10:09.501Z,45.15
2018-04-02T12:11:09.522Z,44.77
2018-04-02T12:12:09.822Z,44.77
2018-04-02T12:13:09.834Z,44.77
2018-04-02T12:14:09.566Z,45.06
2018-04-02T12:15:09.866Z,45.17
2018-04-02T12:16:09.878Z,45.27
2018-04-02T12:17:09.902Z,45.15
2018-04-02T12:18:09.923Z,45.17
2018-04-02T12:19:09.928Z,45.27
2018-04-02T12:20:09.668Z,45.17
2018-04-02T12:21:10.251Z,45.17
2018-04-02T12:22:09.695Z,45.27
2018-04-02T12:23:10.006Z,45.08
2018-04-02T12:24:10.008Z,45.17
2018-04-02T12:25:10.023Z,45.27
2018-04-02T12:26:10.121Z,45.65
2018-04-02T12:27:10.063Z,45.67
2018-04-02T12:28:10.074Z,45.67
2018-04-02T12:29:10.094Z,45.87
2018-04-02T12:30:10.103Z,45.77
2018-04-02T12:31:09.838Z,45.48
2018-04-02T12:32:09.855Z,45.58
2018-04-02T12:33:09.871Z,45.1
2018-04-02T12:34:10.172Z,44.91
2018-04-02T12:35:09.905Z,45.1
2018-04-02T12:36:09.921Z,44.62
2018-04-02T12:37:10.226Z,44.36
2018-04-02T12:38:09.954Z,44.36
2018-04-02T12:39:10.252Z,44.36
2018-04-02T12:40:10.275Z,44.45
2018-04-02T12:41:10.006Z,44.45
2018-04-02T12:42:10.305Z,44.55
2018-04-02T12:43:10.319Z,44.17
2018-04-02T12:44:10.055Z,44.07
2018-04-02T12:45:10.071Z,44.36
2018-04-02T12:46:10.089Z,44.07
2018-04-02T12:47:10.387Z,44.09
2018-04-02T12:48:10.406Z,44.19
2018-04-02T12:49:10.429Z,44.09
2018-04-02T12:50:10.155Z,44
2018-04-02T12:51:10.457Z,43.8
2018-04-02T12:52:10.473Z,43.8
2018-04-02T12:53:10.486Z,43.71
2018-04-02T12:54:10.507Z,43.52
2018-04-02T12:55:10.521Z,43.92
2018-04-02T12:56:10.536Z,43.35